Time;durP1;ratioP1;P1;durP2;ratioP2;P2;SDS_P1;SDS_P2;PMS_P1;PMS_P2;Temp;Humidity;BMP_temperature;BMP_pressure;BME280_temperature;BME280_humidity;BME280_pressure;Samples;Min_cycle;Max_cycle;Signal;HPM_P1;HPM_P2
2021/09/20 00:03:59;;;;;;;8.05;2.83;;;13.30;97.90;;;;;;10301454;28;20133;-58
2021/09/20 00:09:01;;;;;;;2.83;2.22;;;13.20;97.60;;;;;;10302640;28;20499;-59
2021/09/20 00:14:03;;;;;;;4.63;2.42;;;13.30;97.80;;;;;;10300037;28;20489;-59
2021/09/20 00:19:05;;;;;;;4.25;2.80;;;13.30;97.80;;;;;;10304026;28;20058;-59
2021/09/20 00:24:06;;;;;;;6.25;2.58;;;13.20;97.80;;;;;;10305613;28;20081;-59
2021/09/20 00:29:08;;;;;;;5.65;2.63;;;13.20;97.80;;;;;;10298118;28;20046;-59
2021/09/20 00:34:10;;;;;;;7.05;2.58;;;13.10;97.80;;;;;;10304105;28;20082;-59
2021/09/20 00:39:11;;;;;;;6.50;2.88;;;13.10;98.20;;;;;;10300128;28;20136;-61
2021/09/20 00:44:13;;;;;;;4.60;2.53;;;13.10;98.20;;;;;;10298449;28;20059;-59
2021/09/20 00:49:15;;;;;;;6.35;3.30;;;13.10;98.50;;;;;;10303995;28;20081;-59
2021/09/20 00:54:17;;;;;;;5.35;2.30;;;13.10;98.70;;;;;;10300209;28;20100;-59
2021/09/20 00:59:20;;;;;;;4.00;2.15;;;13.10;98.70;;;;;;10302172;28;20065;-59
2021/09/20 01:04:22;;;;;;;8.55;2.80;;;13.20;98.80;;;;;;10298604;28;20046;-59
2021/09/20 01:09:25;;;;;;;6.90;2.67;;;13.10;98.90;;;;;;10298548;28;20069;-59
2021/09/20 01:14:26;;;;;;;3.90;3.00;;;13.00;99.00;;;;;;10301325;28;20104;-59
2021/09/20 01:19:28;;;;;;;5.45;2.75;;;13.00;98.90;;;;;;10303076;28;20050;-59
2021/09/20 01:24:30;;;;;;;4.65;2.40;;;13.00;99.30;;;;;;10298021;28;20136;-60
2021/09/20 01:29:34;;;;;;;4.95;2.38;;;13.00;99.30;;;;;;10298165;28;20097;-58
2021/09/20 01:34:36;;;;;;;3.00;2.45;;;13.00;99.10;;;;;;10295993;28;20102;-59
2021/09/20 01:39:38;;;;;;;7.70;3.22;;;13.00;99.30;;;;;;10302803;28;20074;-59
2021/09/20 01:44:39;;;;;;;4.30;2.55;;;13.00;99.10;;;;;;10293845;28;20050;-59
2021/09/20 01:49:41;;;;;;;5.78;2.60;;;12.90;99.00;;;;;;10299382;28;20074;-59
2021/09/20 01:54:43;;;;;;;4.65;2.55;;;12.90;99.20;;;;;;10296344;28;20501;-59
2021/09/20 01:59:45;;;;;;;6.70;2.65;;;12.90;99.30;;;;;;10294950;28;20078;-59
2021/09/20 02:04:46;;;;;;;4.43;2.70;;;12.90;99.30;;;;;;10299438;28;20054;-59
2021/09/20 02:09:48;;;;;;;4.15;2.47;;;12.90;99.30;;;;;;10299221;28;20108;-60
2021/09/20 02:14:50;;;;;;;5.60;2.78;;;12.80;99.20;;;;;;10299145;28;20058;-59
2021/09/20 02:19:56;;;;;;;5.10;3.00;;;12.80;99.40;;;;;;10297234;28;20133;-58
2021/09/20 02:24:58;;;;;;;4.53;2.70;;;12.70;99.40;;;;;;10298872;28;20054;-57
2021/09/20 02:30:01;;;;;;;5.30;3.15;;;12.70;99.80;;;;;;10294960;28;20050;-58
2021/09/20 02:35:04;;;;;;;4.75;2.70;;;12.60;99.70;;;;;;10295590;28;20495;-57
2021/09/20 02:40:07;;;;;;;6.25;3.08;;;12.60;99.80;;;;;;10290965;28;20132;-57
2021/09/20 02:45:10;;;;;;;6.22;2.75;;;12.60;99.80;;;;;;10297462;28;20548;-57
2021/09/20 02:50:13;;;;;;;4.50;2.90;;;12.60;99.60;;;;;;10302816;28;20519;-57
2021/09/20 02:55:15;;;;;;;6.53;3.22;;;12.50;99.50;;;;;;10292732;28;20132;-57
2021/09/20 03:00:17;;;;;;;4.53;3.05;;;12.40;99.50;;;;;;10295171;28;20046;-58
2021/09/20 03:05:18;;;;;;;4.05;2.70;;;12.40;99.50;;;;;;10298669;28;20058;-57
2021/09/20 03:10:20;;;;;;;3.92;2.38;;;12.40;99.70;;;;;;10301734;28;20054;-57
2021/09/20 03:15:22;;;;;;;4.28;2.17;;;12.40;99.80;;;;;;10295811;28;20524;-58
2021/09/20 03:20:24;;;;;;;7.03;3.65;;;12.40;99.70;;;;;;10296244;28;20054;-58
2021/09/20 03:25:26;;;;;;;5.70;3.20;;;12.50;99.70;;;;;;10296010;28;20998;-58
2021/09/20 03:30:27;;;;;;;2.92;2.30;;;12.50;99.60;;;;;;10294310;28;20077;-57
2021/09/20 03:35:29;;;;;;;4.65;3.13;;;12.40;99.80;;;;;;10302491;28;20085;-57
2021/09/20 03:40:31;;;;;;;4.30;2.78;;;12.40;99.70;;;;;;10302997;28;20073;-58
2021/09/20 03:45:32;;;;;;;5.50;3.30;;;12.40;99.70;;;;;;10302725;28;20097;-58
2021/09/20 03:50:34;;;;;;;3.90;2.70;;;12.40;99.90;;;;;;10306714;28;20077;-58
2021/09/20 03:55:36;;;;;;;4.88;2.88;;;12.40;99.40;;;;;;10300933;28;20058;-59
2021/09/20 04:00:38;;;;;;;6.35;3.25;;;12.40;99.50;;;;;;10301351;28;20434;-58
2021/09/20 04:05:40;;;;;;;7.85;3.38;;;12.40;99.40;;;;;;10302832;28;20061;-57
2021/09/20 04:10:43;;;;;;;4.80;3.00;;;12.50;99.00;;;;;;10305274;28;20054;-57
2021/09/20 04:15:44;;;;;;;4.90;3.05;;;12.40;99.10;;;;;;10302946;28;20128;-58
2021/09/20 04:20:48;;;;;;;5.10;3.13;;;12.40;99.30;;;;;;10298196;28;20501;-58
2021/09/20 04:25:51;;;;;;;4.85;3.15;;;12.40;99.00;;;;;;10297438;28;20081;-60
2021/09/20 04:30:53;;;;;;;5.18;3.30;;;12.40;99.40;;;;;;10302790;28;20074;-57
2021/09/20 04:35:54;;;;;;;5.45;2.92;;;12.40;99.10;;;;;;10304707;28;20591;-58
2021/09/20 04:40:56;;;;;;;6.22;3.92;;;12.40;99.10;;;;;;10300481;28;20148;-59
2021/09/20 04:45:57;;;;;;;6.03;3.17;;;12.40;99.10;;;;;;10303633;28;20073;-59
2021/09/20 04:50:59;;;;;;;7.38;3.90;;;12.40;99.30;;;;;;10301675;28;20046;-61
2021/09/20 04:56:01;;;;;;;5.63;3.47;;;12.50;99.20;;;;;;10301768;28;20140;-61
2021/09/20 05:01:03;;;;;;;6.35;3.28;;;12.50;99.10;;;;;;10296586;28;20070;-61
2021/09/20 05:06:05;;;;;;;6.15;2.72;;;12.40;99.40;;;;;;10303459;28;20043;-61
2021/09/20 05:11:07;;;;;;;5.82;3.05;;;12.40;99.10;;;;;;10296236;28;20073;-61
2021/09/20 05:16:08;;;;;;;5.95;3.08;;;12.40;99.00;;;;;;10299556;28;20046;-61
2021/09/20 05:21:10;;;;;;;5.97;2.95;;;12.40;99.20;;;;;;10295758;28;20159;-61
2021/09/20 05:26:12;;;;;;;8.85;2.83;;;12.40;99.10;;;;;;10298792;28;20132;-61
2021/09/20 05:31:14;;;;;;;6.85;3.45;;;12.40;98.70;;;;;;10301629;28;20433;-61
2021/09/20 05:36:15;;;;;;;7.90;3.90;;;12.40;98.70;;;;;;10296246;28;20424;-61
2021/09/20 05:41:17;;;;;;;5.95;3.97;;;12.40;98.80;;;;;;10294509;28;20125;-61
2021/09/20 05:46:19;;;;;;;7.50;4.28;;;12.40;98.80;;;;;;10299158;28;20062;-61
2021/09/20 05:51:23;;;;;;;4.82;3.35;;;12.30;98.50;;;;;;10301557;28;20054;-61
2021/09/20 05:56:24;;;;;;;7.60;4.40;;;12.40;98.70;;;;;;10297276;28;20425;-61
2021/09/20 06:01:26;;;;;;;17.33;4.07;;;12.30;98.70;;;;;;10297898;28;20452;-61
2021/09/20 06:06:28;;;;;;;8.07;3.92;;;12.40;99.00;;;;;;10299396;28;20053;-61
2021/09/20 06:11:30;;;;;;;7.32;4.25;;;12.30;99.20;;;;;;10296763;28;20054;-61
2021/09/20 06:16:31;;;;;;;8.75;4.07;;;12.40;99.30;;;;;;10292783;28;20078;-61
2021/09/20 06:21:33;;;;;;;9.27;4.53;;;12.40;99.20;;;;;;10294735;28;20726;-61
2021/09/20 06:26:35;;;;;;;9.25;4.68;;;12.40;99.10;;;;;;10293886;28;20126;-61
2021/09/20 06:31:38;;;;;;;10.23;4.95;;;12.40;99.30;;;;;;10300235;28;20121;-61
2021/09/20 06:36:40;;;;;;;6.82;4.82;;;12.50;99.30;;;;;;10295861;28;20050;-61
2021/09/20 06:41:42;;;;;;;12.20;4.75;;;12.60;99.50;;;;;;10277453;28;20050;-61
2021/09/20 06:46:45;;;;;;;7.88;4.25;;;12.60;99.00;;;;;;10295003;28;20512;-61
2021/09/20 06:51:47;;;;;;;7.07;4.55;;;12.70;98.90;;;;;;10296797;28;20063;-61
2021/09/20 06:56:49;;;;;;;7.63;4.82;;;12.80;98.70;;;;;;10295469;28;20059;-61
2021/09/20 07:01:51;;;;;;;8.68;4.75;;;12.80;98.40;;;;;;10296493;28;20494;-61
2021/09/20 07:06:52;;;;;;;9.77;4.47;;;12.90;98.50;;;;;;10293698;28;20059;-61
2021/09/20 07:11:54;;;;;;;6.47;4.03;;;13.00;98.90;;;;;;10300457;28;20050;-61
2021/09/20 07:16:56;;;;;;;7.75;4.60;;;13.20;98.20;;;;;;10304587;28;20061;-61
2021/09/20 07:21:57;;;;;;;7.30;4.65;;;13.30;97.80;;;;;;10301583;28;20070;-61
2021/09/20 07:27:00;;;;;;;8.38;5.68;;;13.30;97.50;;;;;;10304682;28;20129;-61
2021/09/20 07:32:03;;;;;;;8.32;5.18;;;13.30;97.10;;;;;;10301292;28;20078;-61
2021/09/20 07:37:05;;;;;;;6.30;4.63;;;13.30;96.90;;;;;;10299551;28;20057;-61
2021/09/20 07:42:09;;;;;;;5.85;4.03;;;13.40;97.50;;;;;;10302816;28;20141;-61
2021/09/20 07:47:10;;;;;;;8.98;4.72;;;13.60;97.30;;;;;;10304653;28;20112;-61
2021/09/20 07:52:12;;;;;;;8.98;5.30;;;13.60;96.90;;;;;;10304933;28;20112;-61
2021/09/20 07:57:14;;;;;;;10.18;4.80;;;13.70;96.70;;;;;;10306353;28;20730;-61
2021/09/20 08:02:16;;;;;;;16.63;5.93;;;13.80;96.70;;;;;;10301790;28;20082;-61
2021/09/20 08:07:18;;;;;;;5.95;4.20;;;13.90;96.50;;;;;;10307831;28;20493;-61
2021/09/20 08:12:20;;;;;;;7.15;4.97;;;13.90;96.20;;;;;;10300824;28;20089;-61
2021/09/20 08:17:21;;;;;;;7.05;4.68;;;14.10;96.50;;;;;;10298770;28;20117;-61
2021/09/20 08:22:23;;;;;;;7.68;4.72;;;14.10;96.00;;;;;;10299644;28;20144;-61
2021/09/20 08:27:25;;;;;;;8.57;5.80;;;14.30;96.20;;;;;;10301064;28;20160;-61
2021/09/20 08:32:27;;;;;;;9.57;4.80;;;14.30;95.80;;;;;;10298155;28;20065;-61
2021/09/20 08:37:29;;;;;;;8.32;4.78;;;14.50;96.10;;;;;;10300181;28;20073;-61
2021/09/20 08:42:30;;;;;;;7.25;4.65;;;14.50;95.80;;;;;;10302199;28;20097;-61
2021/09/20 08:47:32;;;;;;;6.32;4.15;;;14.60;96.30;;;;;;10303335;28;20050;-61
2021/09/20 08:52:34;;;;;;;6.93;4.88;;;14.80;95.60;;;;;;10298357;28;20050;-61
2021/09/20 08:57:37;;;;;;;6.55;4.10;;;14.70;95.60;;;;;;10302098;28;20749;-61
2021/09/20 09:02:38;;;;;;;7.82;4.05;;;15.00;94.90;;;;;;10299270;28;20069;-62
2021/09/20 09:07:44;;;;;;;8.25;4.72;;;15.30;94.10;;;;;;10304423;28;20051;-61
2021/09/20 09:12:46;;;;;;;7.30;4.22;;;15.50;93.80;;;;;;10300292;28;20054;-61
2021/09/20 09:17:49;;;;;;;6.45;4.47;;;15.60;93.10;;;;;;10301899;28;20053;-61
2021/09/20 09:23:03;;;;;;;6.55;4.45;;;15.70;93.00;;;;;;10302672;28;20050;-61
2021/09/20 09:28:16;;;;;;;6.57;3.83;;;15.90;92.20;;;;;;10293793;28;20105;-61
2021/09/20 09:33:35;;;;;;;8.55;4.03;;;16.00;92.20;;;;;;10302006;28;20054;-62
2021/09/20 09:38:37;;;;;;;5.72;3.22;;;16.20;91.60;;;;;;10303084;28;20104;-62
2021/09/20 09:43:43;;;;;;;10.32;4.18;;;16.20;91.50;;;;;;10303937;28;20152;-61
2021/09/20 09:48:45;;;;;;;6.13;4.05;;;16.30;90.90;;;;;;10297651;28;20051;-61
2021/09/20 09:53:49;;;;;;;4.45;3.30;;;16.40;90.90;;;;;;10297600;28;20440;-61
2021/09/20 09:58:55;;;;;;;4.97;3.30;;;16.50;90.30;;;;;;10300091;28;20085;-61
2021/09/20 10:04:20;;;;;;;6.15;3.45;;;16.50;90.40;;;;;;10298097;28;20054;-61
2021/09/20 10:09:28;;;;;;;4.90;3.17;;;16.60;90.30;;;;;;10298689;28;20050;-61
2021/09/20 10:14:29;;;;;;;7.20;3.22;;;16.60;90.50;;;;;;10298659;28;20532;-61
2021/09/20 10:19:31;;;;;;;4.57;2.80;;;16.80;89.90;;;;;;10295262;28;20062;-61
2021/09/20 10:24:33;;;;;;;5.07;3.55;;;16.90;89.60;;;;;;10295226;28;20043;-61
2021/09/20 10:29:37;;;;;;;3.83;3.03;;;17.00;90.00;;;;;;10295125;28;20132;-62
2021/09/20 10:34:39;;;;;;;4.32;3.35;;;16.80;88.30;;;;;;10294005;28;20101;-61
2021/09/20 10:39:52;;;;;;;5.38;3.22;;;17.10;88.60;;;;;;10297284;28;20414;-61
2021/09/20 10:44:54;;;;;;;4.68;3.40;;;17.30;87.50;;;;;;10296282;28;20050;-61
2021/09/20 10:49:56;;;;;;;5.75;3.00;;;17.40;84.10;;;;;;10297557;28;20108;-61
2021/09/20 10:55:04;;;;;;;4.88;2.80;;;17.70;87.00;;;;;;10296273;28;20042;-61
2021/09/20 11:00:24;;;;;;;4.13;2.58;;;18.00;85.20;;;;;;10298074;28;20054;-61
2021/09/20 11:05:26;;;;;;;5.65;2.65;;;18.10;83.50;;;;;;10293403;28;20134;-61
2021/09/20 11:10:31;;;;;;;8.80;2.78;;;18.60;83.60;;;;;;10296060;28;20047;-61
2021/09/20 11:15:43;;;;;;;3.17;2.67;;;18.60;82.20;;;;;;10293540;28;20047;-61
2021/09/20 11:20:48;;;;;;;5.05;2.55;;;18.80;81.10;;;;;;10296375;28;20628;-61
2021/09/20 11:26:12;;;;;;;3.72;2.80;;;18.50;81.10;;;;;;10298155;28;20077;-62
2021/09/20 11:31:13;;;;;;;3.15;2.40;;;18.80;79.80;;;;;;10295897;28;20203;-61
2021/09/20 11:36:33;;;;;;;4.72;2.28;;;18.90;79.50;;;;;;10293466;28;20077;-62
2021/09/20 11:41:36;;;;;;;2.75;2.03;;;18.70;80.10;;;;;;10290326;28;20050;-61
2021/09/20 11:46:38;;;;;;;3.90;2.13;;;18.50;77.10;;;;;;10294426;28;20089;-61
2021/09/20 11:51:39;;;;;;;3.13;2.03;;;18.60;80.70;;;;;;10300849;28;20140;-61
2021/09/20 11:56:47;;;;;;;5.28;2.38;;;18.90;79.00;;;;;;10301295;28;20053;-62
2021/09/20 12:01:48;;;;;;;3.03;2.13;;;18.60;75.80;;;;;;10304342;28;20108;-61
2021/09/20 12:06:50;;;;;;;2.40;2.00;;;18.90;79.80;;;;;;10303418;28;20061;-62
2021/09/20 12:12:03;;;;;;;5.55;2.88;;;18.90;78.10;;;;;;10305016;28;20574;-60
2021/09/20 12:17:05;;;;;;;2.45;1.98;;;18.70;78.70;;;;;;10295022;28;20672;-61
2021/09/20 12:22:06;;;;;;;2.70;2.13;;;18.90;78.10;;;;;;10299373;28;20291;-61
2021/09/20 12:27:09;;;;;;;2.78;2.25;;;18.90;77.70;;;;;;10301005;28;20050;-61
2021/09/20 12:32:18;;;;;;;2.80;2.00;;;18.60;76.90;;;;;;10302768;28;20540;-61
2021/09/20 12:37:26;;;;;;;4.72;2.05;;;18.70;77.80;;;;;;10300370;28;20050;-61
2021/09/20 12:42:27;;;;;;;2.55;1.98;;;18.90;80.00;;;;;;10296439;28;20129;-61
2021/09/20 12:47:30;;;;;;;4.25;1.77;;;18.90;78.00;;;;;;10300985;28;20109;-61
2021/09/20 12:52:39;;;;;;;3.47;2.00;;;18.80;74.30;;;;;;10303546;28;20050;-60
2021/09/20 12:57:56;;;;;;;2.10;1.83;;;18.80;77.50;;;;;;10299841;28;20445;-61
2021/09/20 13:03:31;;;;;;;5.25;2.63;;;18.80;77.20;;;;;;10301353;28;20046;-60
2021/09/20 13:08:33;;;;;;;5.28;2.22;;;18.80;75.50;;;;;;10282076;28;20049;-61
2021/09/20 13:13:38;;;;;;;3.85;2.85;;;18.80;76.60;;;;;;10295763;28;20126;-61
2021/09/20 13:18:41;;;;;;;3.13;2.30;;;18.60;76.70;;;;;;10302457;28;20189;-60
2021/09/20 13:23:43;;;;;;;2.67;2.00;;;18.60;78.90;;;;;;10302128;28;20101;-61
2021/09/20 13:28:46;;;;;;;2.95;2.10;;;19.00;77.10;;;;;;10300737;28;20038;-61
2021/09/20 13:33:50;;;;;;;2.45;1.88;;;19.20;75.40;;;;;;10296533;28;20090;-61
2021/09/20 13:38:52;;;;;;;3.33;2.45;;;19.20;75.30;;;;;;10299169;28;20097;-61
2021/09/20 13:43:54;;;;;;;5.90;2.70;;;19.50;74.90;;;;;;10299802;28;20134;-61
2021/09/20 13:48:56;;;;;;;3.08;2.50;;;19.60;74.00;;;;;;10300010;28;20062;-61
2021/09/20 13:53:58;;;;;;;2.40;2.00;;;19.80;73.50;;;;;;10314752;28;20104;-61
2021/09/20 13:59:00;;;;;;;2.17;1.98;;;19.90;71.80;;;;;;10299722;28;20070;-61
2021/09/20 14:04:01;;;;;;;3.60;2.40;;;19.60;72.70;;;;;;10298938;28;20046;-61
2021/09/20 14:09:03;;;;;;;2.40;2.17;;;19.40;73.70;;;;;;10296719;28;20129;-61
2021/09/20 14:14:05;;;;;;;2.92;2.63;;;19.40;73.20;;;;;;10294010;28;20540;-61
2021/09/20 14:19:06;;;;;;;2.25;1.77;;;19.30;74.20;;;;;;10301078;28;20050;-61
2021/09/20 14:24:08;;;;;;;4.10;2.33;;;18.90;74.00;;;;;;10292965;28;20101;-61
2021/09/20 14:29:10;;;;;;;4.63;2.05;;;18.60;75.90;;;;;;10298089;28;20054;-61
2021/09/20 14:34:12;;;;;;;4.47;2.58;;;18.40;75.70;;;;;;10291309;28;20104;-61
2021/09/20 14:39:13;;;;;;;3.28;2.30;;;18.20;75.70;;;;;;10292703;28;20046;-61
2021/09/20 14:44:15;;;;;;;2.55;2.10;;;18.20;77.00;;;;;;10297006;28;20063;-61
2021/09/20 14:49:17;;;;;;;3.35;2.30;;;18.00;77.30;;;;;;10295673;28;20093;-61
2021/09/20 14:54:19;;;;;;;2.97;2.08;;;17.90;77.40;;;;;;10294924;28;20811;-61
2021/09/20 14:59:21;;;;;;;5.18;2.55;;;17.80;76.90;;;;;;10294973;28;20054;-62
2021/09/20 15:04:22;;;;;;;2.70;2.30;;;17.70;77.90;;;;;;10293390;28;20469;-61
2021/09/20 15:09:24;;;;;;;4.18;2.55;;;17.50;78.00;;;;;;10307429;28;20116;-61
2021/09/20 15:14:25;;;;;;;5.70;2.40;;;17.40;78.20;;;;;;10294163;28;20086;-61
2021/09/20 15:19:27;;;;;;;3.42;2.20;;;17.30;79.50;;;;;;10296284;28;20050;-61
2021/09/20 15:24:29;;;;;;;4.25;2.50;;;17.30;78.90;;;;;;10296317;28;20055;-60
2021/09/20 15:29:31;;;;;;;3.28;2.17;;;17.10;79.20;;;;;;10297209;28;20105;-61
2021/09/20 15:34:33;;;;;;;6.90;3.17;;;17.10;80.40;;;;;;10302179;28;20652;-61
2021/09/20 15:39:35;;;;;;;4.85;3.30;;;17.10;80.60;;;;;;10301682;28;20129;-61
2021/09/20 15:44:37;;;;;;;5.65;2.80;;;16.90;80.40;;;;;;10301986;28;20058;-61
2021/09/20 15:49:40;;;;;;;4.07;3.03;;;16.90;81.60;;;;;;10306868;28;20434;-61
2021/09/20 15:54:42;;;;;;;5.15;2.92;;;16.80;81.90;;;;;;10301700;28;20050;-60
2021/09/20 15:59:43;;;;;;;4.68;3.50;;;16.70;81.60;;;;;;10297568;28;20104;-60
2021/09/20 16:17:06;;;;;;;5.00;3.30;;;16.50;84.50;;;;;;10286541;27;20050;-92
2021/09/20 16:22:20;;;;;;;3.97;2.97;;;16.30;84.20;;;;;;10153169;28;20112;-93
2021/09/20 16:27:39;;;;;;;3.72;2.63;;;16.30;85.50;;;;;;10087094;28;20055;-93
2021/09/20 16:33:17;;;;;;;5.57;2.50;;;16.20;85.80;;;;;;10055081;28;20059;-93
2021/09/20 16:38:28;;;;;;;4.40;2.95;;;16.10;85.70;;;;;;10098367;28;20059;-94
2021/09/20 16:50:10;;;;;;;2.42;2.22;;;15.90;85.50;;;;;;10102227;28;20050;-93
2021/09/20 16:55:27;;;;;;;4.03;2.58;;;15.80;85.80;;;;;;10116234;28;20175;-93
2021/09/20 17:00:42;;;;;;;3.67;2.10;;;15.70;85.60;;;;;;10112764;28;20054;-93
2021/09/20 17:05:58;;;;;;;4.35;2.05;;;15.60;85.90;;;;;;10140017;28;20047;-93
2021/09/20 17:11:19;;;;;;;4.75;2.42;;;15.60;85.70;;;;;;10118105;28;20095;-93
2021/09/20 17:17:34;;;;;;;3.58;2.47;;;15.60;86.50;;;;;;10041181;28;20507;-93
2021/09/20 17:23:10;;;;;;;3.15;2.40;;;15.50;87.50;;;;;;10041807;28;20054;-93
2021/09/20 17:29:16;;;;;;;8.00;2.63;;;15.40;87.80;;;;;;9999235;28;20053;-94
2021/09/20 17:34:21;;;;;;;3.90;2.45;;;15.40;89.50;;;;;;10373558;28;20049;-93
2021/09/20 17:39:23;;;;;;;3.60;2.80;;;15.30;89.30;;;;;;10371460;28;20107;-92
2021/09/20 17:44:25;;;;;;;3.42;2.45;;;15.30;89.30;;;;;;10385692;28;20068;-93
2021/09/20 17:49:28;;;;;;;4.78;2.75;;;15.10;90.00;;;;;;10375298;28;20081;-93
2021/09/20 17:55:30;;;;;;;4.28;2.70;;;15.10;90.60;;;;;;10346294;28;20106;-95
2021/09/20 18:00:42;;;;;;;4.53;3.33;;;15.10;91.00;;;;;;10248900;28;20033;-93
2021/09/20 18:05:49;;;;;;;5.65;2.83;;;15.00;90.60;;;;;;10271600;28;20053;-94
2021/09/20 18:11:11;;;;;;;3.95;2.70;;;15.00;90.80;;;;;;10319757;28;20053;-94
2021/09/20 18:16:42;;;;;;;4.57;2.97;;;15.00;90.90;;;;;;10177987;28;20050;-94
2021/09/20 18:22:02;;;;;;;6.97;3.10;;;14.90;90.80;;;;;;10143862;28;20054;-93
2021/09/20 18:27:08;;;;;;;5.22;3.38;;;14.90;91.00;;;;;;10415451;28;20113;-93
2021/09/20 18:32:10;;;;;;;5.05;2.65;;;14.90;90.90;;;;;;10362431;28;20179;-93
2021/09/20 18:37:14;;;;;;;3.90;2.92;;;14.90;91.20;;;;;;10324556;28;20103;-93
2021/09/20 18:42:33;;;;;;;4.07;2.97;;;14.80;90.60;;;;;;10169337;28;21530;-94
2021/09/20 18:47:45;;;;;;;3.50;2.63;;;14.70;90.40;;;;;;10102781;28;20429;-94
2021/09/20 18:52:50;;;;;;;7.15;3.95;;;14.70;90.60;;;;;;10264593;28;20045;-93
2021/09/20 18:57:56;;;;;;;5.43;3.13;;;14.60;90.90;;;;;;10255556;28;20045;-93
2021/09/20 19:03:00;;;;;;;5.38;3.22;;;14.60;91.20;;;;;;10314375;28;21262;-94
2021/09/20 19:08:11;;;;;;;5.43;3.65;;;14.50;91.70;;;;;;10266080;28;20176;-93
2021/09/20 19:13:26;;;;;;;8.02;3.53;;;14.50;92.20;;;;;;10215193;28;20108;-93
2021/09/20 19:19:04;;;;;;;4.28;3.53;;;14.50;92.80;;;;;;10145879;28;20112;-93
2021/09/20 19:24:28;;;;;;;5.38;3.42;;;14.50;93.30;;;;;;10339623;28;20100;-93
2021/09/20 19:29:48;;;;;;;5.45;3.25;;;14.40;92.60;;;;;;10295200;28;20072;-93
2021/09/20 19:34:52;;;;;;;9.98;4.07;;;14.50;92.40;;;;;;10404944;28;20156;-93
2021/09/20 19:40:00;;;;;;;7.68;4.20;;;14.40;93.40;;;;;;10285395;28;20113;-93
2021/09/20 19:45:25;;;;;;;6.03;3.60;;;14.30;93.90;;;;;;10262991;28;20065;-94
2021/09/20 19:50:53;;;;;;;5.57;3.80;;;14.30;93.70;;;;;;10047788;28;20720;-93
2021/09/20 19:56:14;;;;;;;5.00;3.50;;;14.20;92.70;;;;;;10206310;28;20113;-93
2021/09/20 20:01:51;;;;;;;4.87;4.13;;;14.20;92.30;;;;;;10157582;28;20054;-93
2021/09/20 20:07:14;;;;;;;5.75;3.50;;;14.20;92.20;;;;;;10185068;28;20150;-93
2021/09/20 20:12:23;;;;;;;5.15;3.58;;;14.10;92.00;;;;;;10328000;28;20040;-93
2021/09/20 20:17:30;;;;;;;4.63;3.92;;;14.00;92.40;;;;;;10382103;28;20044;-94
2021/09/20 20:22:49;;;;;;;5.80;3.72;;;14.00;92.90;;;;;;10246875;28;20057;-94
2021/09/20 20:27:58;;;;;;;5.47;3.88;;;14.00;93.40;;;;;;10346715;28;20563;-93
2021/09/20 20:33:11;;;;;;;4.43;3.70;;;14.00;93.70;;;;;;10428692;28;20045;-90
2021/09/20 20:38:13;;;;;;;10.30;4.10;;;13.80;94.00;;;;;;10435565;28;20087;-90
2021/09/20 20:43:14;;;;;;;6.30;4.15;;;13.80;94.10;;;;;;10438762;28;20083;-90
2021/09/20 20:48:16;;;;;;;8.40;4.35;;;13.70;93.90;;;;;;10439711;28;20045;-90
2021/09/20 20:53:18;;;;;;;5.57;4.18;;;13.70;93.50;;;;;;10438747;28;20542;-90
2021/09/20 20:58:40;;;;;;;7.90;4.65;;;13.70;93.10;;;;;;10405543;28;20053;-90
2021/09/20 21:03:42;;;;;;;4.13;3.65;;;13.70;92.80;;;;;;10410168;28;20064;-89
2021/09/20 21:08:44;;;;;;;3.50;3.20;;;13.70;92.60;;;;;;10447022;28;20119;-89
2021/09/20 21:13:46;;;;;;;6.07;2.80;;;13.70;92.30;;;;;;10452552;28;20049;-89
2021/09/20 21:18:48;;;;;;;5.20;3.03;;;13.70;92.20;;;;;;10364070;28;20059;-90
2021/09/20 21:23:50;;;;;;;8.55;3.20;;;13.60;92.20;;;;;;10383585;28;20142;-90
2021/09/20 21:28:53;;;;;;;6.53;2.80;;;13.60;91.70;;;;;;10306397;28;20107;-90
2021/09/20 21:34:01;;;;;;;6.85;3.42;;;13.60;92.00;;;;;;10385867;28;20057;-90
2021/09/20 21:39:03;;;;;;;6.47;3.28;;;13.60;91.60;;;;;;10381596;28;20045;-90
2021/09/20 21:44:05;;;;;;;4.30;2.75;;;13.60;91.60;;;;;;10360991;28;20060;-90
2021/09/20 21:49:07;;;;;;;4.70;2.83;;;13.60;91.60;;;;;;10366619;28;20516;-90
2021/09/20 21:54:09;;;;;;;3.67;2.65;;;13.50;91.50;;;;;;10378270;28;20124;-90
2021/09/20 21:59:12;;;;;;;8.90;2.90;;;13.50;91.70;;;;;;10390570;28;20072;-90
2021/09/20 22:04:13;;;;;;;5.35;2.40;;;13.50;91.60;;;;;;10387215;28;20088;-90
2021/09/20 22:09:20;;;;;;;6.78;2.58;;;13.50;91.90;;;;;;10399593;28;20064;-90
2021/09/20 22:14:23;;;;;;;4.32;2.42;;;13.50;91.70;;;;;;10378642;28;20447;-90
2021/09/20 22:19:24;;;;;;;5.38;2.00;;;13.40;91.60;;;;;;10390624;28;20098;-93
2021/09/20 22:24:26;;;;;;;8.13;2.95;;;13.40;91.90;;;;;;10367965;28;20045;-91
2021/09/20 22:29:28;;;;;;;6.32;2.00;;;13.40;91.70;;;;;;10372370;28;20056;-92
2021/09/20 22:34:33;;;;;;;2.92;1.60;;;13.30;91.80;;;;;;10394724;28;20060;-91
2021/09/20 22:39:35;;;;;;;1.80;1.40;;;13.40;91.50;;;;;;10368742;28;20059;-92
2021/09/20 22:44:37;;;;;;;3.72;1.38;;;13.30;91.10;;;;;;10380167;28;20075;-91
2021/09/20 22:49:39;;;;;;;2.60;1.80;;;13.30;91.10;;;;;;10397043;28;20054;-90
2021/09/20 22:54:41;;;;;;;2.65;1.67;;;13.30;90.90;;;;;;10385999;28;20053;-90
2021/09/20 22:59:42;;;;;;;3.83;1.55;;;13.20;90.60;;;;;;10381693;28;20113;-91
2021/09/20 23:04:45;;;;;;;3.92;1.45;;;13.10;90.60;;;;;;10382611;28;20059;-91
2021/09/20 23:09:47;;;;;;;3.55;1.60;;;13.10;90.20;;;;;;10368001;28;20054;-91
2021/09/20 23:14:49;;;;;;;8.48;2.28;;;13.10;90.20;;;;;;10394209;28;20049;-90
2021/09/20 23:19:51;;;;;;;1.83;1.33;;;13.20;90.60;;;;;;10371321;28;20478;-91
2021/09/20 23:24:53;;;;;;;3.28;1.20;;;13.10;90.60;;;;;;10384001;28;20049;-91
2021/09/20 23:29:55;;;;;;;1.92;1.20;;;13.10;90.50;;;;;;10369379;28;20049;-91
2021/09/20 23:35:00;;;;;;;3.65;1.52;;;13.10;90.60;;;;;;10367460;28;20042;-91
2021/09/20 23:40:03;;;;;;;3.88;1.25;;;13.10;91.10;;;;;;10355694;28;20083;-91
2021/09/20 23:45:06;;;;;;;2.60;1.30;;;13.10;91.40;;;;;;10380406;28;20550;-91
2021/09/20 23:50:09;;;;;;;2.90;1.50;;;12.90;90.80;;;;;;10360055;28;20049;-91
2021/09/20 23:55:11;;;;;;;2.33;1.20;;;12.90;90.60;;;;;;10377312;28;20065;-91
